createdAt,value
2018-11-20T02:12:56.369Z,102101.41
2018-11-20T02:16:16.665Z,102106.59
2018-11-20T02:19:48.353Z,102095.86
2018-11-20T02:23:12.466Z,102111.28
2018-11-20T02:26:41.127Z,102108.72
2018-11-20T02:30:05.482Z,102094.16
2018-11-20T02:33:24.279Z,102098.84
2018-11-20T02:36:48.702Z,102090.72
2018-11-20T02:40:06.482Z,102091.16
2018-11-20T02:43:50.285Z,102081.73
2018-11-20T02:47:15.913Z,102079.56
2018-11-20T02:50:40.712Z,102084.28
2018-11-20T02:54:15.336Z,102065.80
2018-11-20T02:57:41.074Z,102058.47
2018-11-20T03:01:12.403Z,102052.91
2018-11-20T03:04:29.559Z,102055.52
2018-11-20T03:07:44.134Z,102051.70
2018-11-20T03:11:09.866Z,102040.99
2018-11-20T03:14:26.623Z,102050.00
2018-11-20T03:17:50.767Z,102037.98
2018-11-20T03:21:08.491Z,102044.89
2018-11-20T03:24:49.106Z,102027.69
2018-11-20T03:28:17.765Z,102025.15
2018-11-20T03:31:52.454Z,102016.99
2018-11-20T03:35:08.090Z,102020.86
2018-11-20T03:38:32.271Z,102016.95
2018-11-20T03:42:01.366Z,102022.98
2018-11-20T03:45:36.570Z,102014.36
2018-11-20T03:49:00.709Z,102007.50
2018-11-20T03:52:24.895Z,101996.80
2018-11-20T03:55:44.891Z,101998.98
2018-11-20T03:59:13.271Z,101995.91
2018-11-20T04:02:51.121Z,101996.81
2018-11-20T04:06:15.156Z,101992.05
2018-11-20T04:09:35.201Z,101987.31
2018-11-20T04:12:49.887Z,101990.73
2018-11-20T04:16:18.307Z,101972.68
2018-11-20T04:19:43.945Z,101973.56
2018-11-20T04:23:12.414Z,101971.45
2018-11-20T04:26:44.122Z,101966.28
2018-11-20T04:30:52.306Z,101977.45
2018-11-20T04:34:16.606Z,101977.84
2018-11-20T04:37:45.628Z,101973.64
2018-11-20T04:41:04.105Z,101965.44
2018-11-20T04:44:20.988Z,101964.63
2018-11-20T04:47:38.615Z,101962.95
2018-11-20T04:50:53.531Z,101964.67
2018-11-20T04:54:22.052Z,101978.42
2018-11-20T04:57:56.616Z,101972.43
2018-11-20T05:01:20.401Z,101974.59
2018-11-20T05:05:03.880Z,101980.62
2018-11-20T05:08:29.956Z,101987.94
2018-11-20T05:12:10.503Z,101978.48
2018-11-20T05:15:36.277Z,101966.05
2018-11-20T05:19:07.690Z,101973.78
2018-11-20T05:22:31.814Z,101965.63
2018-11-20T05:26:15.747Z,101974.62
2018-11-20T05:29:56.535Z,101973.79
2018-11-20T05:33:12.800Z,101977.22
2018-11-20T05:36:47.535Z,101974.20
2018-11-20T05:40:01.480Z,101974.64
2018-11-20T05:43:30.346Z,101972.92
2018-11-20T05:47:03.088Z,101977.20
2018-11-20T05:50:28.662Z,101975.08
2018-11-20T05:54:00.288Z,101988.36
2018-11-20T05:57:24.216Z,101975.46
2018-11-20T06:00:51.259Z,101981.51
2018-11-20T06:04:28.650Z,101987.52
2018-11-20T06:07:54.264Z,101990.08
2018-11-20T06:11:18.266Z,101989.64
2018-11-20T06:14:58.718Z,101994.37
2018-11-20T06:18:31.439Z,102008.96
2018-11-20T06:21:55.396Z,102026.98
2018-11-20T06:25:20.204Z,102005.53
2018-11-20T06:28:44.362Z,102014.98
2018-11-20T06:32:08.538Z,102007.25
2018-11-20T06:35:27.574Z,102011.55
2018-11-20T06:39:05.195Z,102013.23
2018-11-20T06:42:30.139Z,102027.42
2018-11-20T06:45:55.730Z,102023.55
2018-11-20T06:49:20.006Z,102019.70
2018-11-20T06:52:44.419Z,102022.67
2018-11-20T06:56:21.898Z,102023.55
2018-11-20T06:59:56.743Z,102023.53
2018-11-20T07:03:26.112Z,102019.25
2018-11-20T07:07:04.011Z,102032.11
2018-11-20T07:10:31.035Z,102012.84
2018-11-20T07:14:21.819Z,102013.25
2018-11-20T07:17:46.049Z,102025.25
2018-11-20T07:21:14.541Z,102022.70
2018-11-20T07:24:55.284Z,102017.55
2018-11-20T07:28:11.747Z,102026.55
2018-11-20T07:31:35.731Z,102005.95
2018-11-20T07:34:55.263Z,102012.82
2018-11-20T07:38:28.393Z,102023.11
2018-11-20T07:42:06.154Z,102007.69
2018-11-20T07:45:30.650Z,102014.10
2018-11-20T07:49:00.291Z,102005.09
2018-11-20T07:52:24.591Z,102006.80
2018-11-20T07:55:44.453Z,102001.62
2018-11-20T07:59:12.769Z,101999.08
2018-11-20T08:02:47.489Z,101990.89
2018-11-20T08:06:11.551Z,101994.39
2018-11-20T08:09:43.082Z,101986.67
2018-11-20T08:13:17.391Z,101981.50
2018-11-20T08:16:50.638Z,101970.75
2018-11-20T08:20:22.211Z,101963.44
2018-11-20T08:23:46.095Z,101971.20
2018-11-20T08:27:05.155Z,101972.03
2018-11-20T08:30:45.796Z,101957.00
2018-11-20T08:34:18.328Z,101965.14
2018-11-20T08:37:33.384Z,101968.13
2018-11-20T08:40:55.223Z,101964.28
2018-11-20T08:44:29.981Z,101971.18
2018-11-20T08:48:01.267Z,101967.29
2018-11-20T08:51:32.928Z,101966.42
2018-11-20T08:54:56.811Z,101951.02
2018-11-20T08:58:31.302Z,101935.55
2018-11-20T09:02:02.656Z,101935.98
2018-11-20T09:05:34.219Z,101935.16
2018-11-20T09:08:51.517Z,101932.98
2018-11-20T09:12:25.848Z,101924.78
2018-11-20T09:15:51.374Z,101925.30
2018-11-20T09:19:28.819Z,101920.12
2018-11-20T09:22:48.667Z,101921.78
2018-11-20T09:26:12.758Z,101919.20
2018-11-20T09:29:37.016Z,101919.62
2018-11-20T09:33:00.928Z,101920.94
2018-11-20T09:36:18.369Z,101909.80
2018-11-20T09:39:44.092Z,101904.27
2018-11-20T09:43:03.724Z,101902.95
2018-11-20T09:46:28.028Z,101897.33
2018-11-20T09:49:57.494Z,101884.84
2018-11-20T09:53:26.019Z,101895.98
2018-11-20T09:56:54.504Z,101886.59
2018-11-20T10:00:22.895Z,101887.83
2018-11-20T10:03:48.673Z,101874.94
2018-11-20T10:07:07.365Z,101882.19
2018-11-20T10:10:31.540Z,101874.97
2018-11-20T10:13:55.772Z,101881.31
2018-11-20T10:17:19.835Z,101885.26
2018-11-20T10:20:43.956Z,101875.32
2018-11-20T10:24:27.438Z,101870.48
2018-11-20T10:27:51.747Z,101879.14
2018-11-20T10:31:16.165Z,101863.68
2018-11-20T10:34:41.880Z,101866.65
2018-11-20T10:38:25.247Z,101853.33
2018-11-20T10:41:50.720Z,101858.94
2018-11-20T10:45:19.315Z,101846.06
2018-11-20T10:48:54.365Z,101840.50
2018-11-20T10:52:20.066Z,101844.39
2018-11-20T10:55:45.657Z,101833.59
2018-11-20T10:59:13.780Z,101838.27
2018-11-20T11:02:57.378Z,101836.92
2018-11-20T11:06:21.223Z,101827.92
2018-11-20T11:09:38.543Z,101829.34
2018-11-20T11:13:02.977Z,101827.64
2018-11-20T11:16:27.230Z,101822.84
2018-11-20T11:20:00.774Z,101812.59
2018-11-20T11:23:21.824Z,101805.71
2018-11-20T11:26:53.133Z,101805.66
2018-11-20T11:30:27.050Z,101804.73
2018-11-20T11:33:55.280Z,101787.98
2018-11-20T11:37:35.923Z,101785.34
2018-11-20T11:40:57.267Z,101780.97
2018-11-20T11:44:21.587Z,101777.11
2018-11-20T11:47:43.210Z,101786.95
2018-11-20T11:51:08.836Z,101778.40
2018-11-20T11:54:37.471Z,101775.50
2018-11-20T11:58:01.686Z,101771.28
2018-11-20T12:05:04.246Z,101762.27
2018-11-20T12:08:28.137Z,101776.95
2018-11-20T12:11:53.519Z,101774.82
2018-11-20T12:15:25.145Z,101776.05
2018-11-20T12:18:50.741Z,101772.56
2018-11-20T12:22:22.247Z,101763.99
2018-11-20T12:25:46.222Z,101760.62
2018-11-20T12:29:10.557Z,101749.44
2018-11-20T12:32:30.784Z,101748.53
2018-11-20T12:36:02.575Z,101751.14
2018-11-20T12:39:25.213Z,101739.89
2018-11-20T12:42:50.827Z,101740.83
2018-11-20T12:46:28.353Z,101727.48
2018-11-20T12:49:52.583Z,101728.44
2018-11-20T12:53:21.264Z,101721.23
2018-11-20T12:57:01.874Z,101729.02
2018-11-20T13:00:46.545Z,101707.62
2018-11-20T13:04:09.197Z,101709.67
2018-11-20T13:07:49.856Z,101706.60
2018-11-20T13:11:13.644Z,101704.00
2018-11-20T13:14:38.572Z,101702.36
2018-11-20T13:18:15.584Z,101694.19
2018-11-20T13:21:40.662Z,101696.82
2018-11-20T13:25:01.779Z,101694.66
2018-11-20T13:28:25.154Z,101703.31
2018-11-20T13:31:53.578Z,101697.75
2018-11-20T13:35:17.757Z,101693.89
2018-11-20T13:38:43.781Z,101691.29
2018-11-20T13:42:18.809Z,101688.84
2018-11-20T13:45:43.794Z,101691.39
2018-11-20T13:49:20.099Z,101687.09
2018-11-20T13:52:47.803Z,101684.54
2018-11-20T13:56:11.482Z,101679.42
2018-11-20T13:59:48.834Z,101677.64
2018-11-20T14:03:12.793Z,101689.67
2018-11-20T14:06:40.145Z,101690.47
2018-11-20T14:10:05.929Z,101688.48
2018-11-20T14:13:31.495Z,101687.70
2018-11-20T14:16:57.171Z,101681.67
2018-11-20T14:20:40.872Z,101675.63
2018-11-20T14:24:05.620Z,101672.62
2018-11-20T14:27:34.100Z,101668.00
2018-11-20T14:30:56.244Z,101656.42
2018-11-20T14:34:24.691Z,101647.34
2018-11-20T14:37:56.175Z,101641.88
2018-11-20T14:41:24.821Z,101639.67
2018-11-20T14:44:37.067Z,101621.22
2018-11-20T14:48:14.435Z,101635.30
2018-11-20T14:51:48.682Z,101616.87
2018-11-20T14:55:17.260Z,101620.78
2018-11-20T14:58:55.021Z,101617.74
2018-11-20T15:02:32.392Z,101608.57
2018-11-20T15:06:06.794Z,101603.95
2018-11-20T15:09:50.680Z,101601.25
2018-11-20T15:13:19.174Z,101604.23
2018-11-20T15:16:42.196Z,101603.77
2018-11-20T15:20:07.776Z,101600.41
2018-11-20T15:23:36.129Z,101609.04
2018-11-20T15:27:04.573Z,101608.98
2018-11-20T15:30:22.605Z,101602.30
2018-11-20T15:33:48.319Z,101597.13
2018-11-20T15:37:19.419Z,101606.93
2018-11-20T15:40:47.894Z,101609.59
2018-11-20T15:44:14.620Z,101618.12
2018-11-20T15:47:42.992Z,101612.87
2018-11-20T15:51:00.551Z,101610.17
2018-11-20T15:54:20.567Z,101627.98
2018-11-20T15:57:58.278Z,101629.60
2018-11-20T16:01:23.859Z,101630.02
2018-11-20T16:05:07.309Z,101635.66
2018-11-20T16:08:41.658Z,101634.75
2018-11-20T16:12:05.839Z,101634.37
2018-11-20T16:15:49.331Z,101622.64
2018-11-20T16:19:29.807Z,101629.95
2018-11-20T16:22:58.327Z,101642.02
2018-11-20T16:26:26.041Z,101651.87
2018-11-20T16:29:49.996Z,101653.56
2018-11-20T16:33:18.472Z,101665.59
2018-11-20T16:40:07.094Z,101657.13
2018-11-20T16:43:38.637Z,101646.83
2018-11-20T16:47:12.884Z,101646.39
2018-11-20T16:50:41.349Z,101646.75
2018-11-20T16:54:01.191Z,101649.79
2018-11-20T16:57:23.992Z,101646.39
2018-11-20T17:00:49.613Z,101649.79
2018-11-20T17:04:14.014Z,101660.16
2018-11-20T17:07:38.116Z,101664.00
2018-11-20T17:11:08.481Z,101652.00
2018-11-20T17:14:34.089Z,101644.31
2018-11-20T17:18:04.406Z,101644.33
2018-11-20T17:21:27.335Z,101641.32
2018-11-20T17:24:51.373Z,101643.61
2018-11-20T17:28:23.055Z,101667.50
2018-11-20T17:31:45.840Z,101661.54
2018-11-20T17:35:10.010Z,101673.97
2018-11-20T17:38:47.711Z,101679.12
2018-11-20T17:42:15.965Z,101688.13
2018-11-20T17:45:40.923Z,101686.49
2018-11-20T17:49:05.179Z,101691.59
2018-11-20T17:52:29.394Z,101695.91
2018-11-20T17:55:52.634Z,101686.54
2018-11-20T17:59:16.643Z,101695.58
2018-11-20T18:02:40.837Z,101681.37
2018-11-20T18:06:01.297Z,101680.52
2018-11-20T18:09:27.599Z,101682.28
2018-11-20T18:12:51.669Z,101682.77
2018-11-20T18:16:11.063Z,101670.36
2018-11-20T18:19:35.198Z,101693.91
2018-11-20T18:23:00.657Z,101693.48
2018-11-20T18:26:29.006Z,101677.66
2018-11-20T18:29:54.595Z,101674.20
2018-11-20T18:33:26.168Z,101676.79
2018-11-20T18:36:51.758Z,101687.05
2018-11-20T18:40:17.333Z,101690.47
2018-11-20T18:43:55.073Z,101690.42
2018-11-20T18:47:20.187Z,101691.77
2018-11-20T18:50:48.524Z,101691.28
2018-11-20T18:54:12.672Z,101693.42
2018-11-20T18:57:50.319Z,101676.77
2018-11-20T19:01:20.697Z,101699.08
2018-11-20T19:05:04.297Z,101693.95
2018-11-20T19:08:38.851Z,101702.93
2018-11-20T19:12:07.328Z,101699.05
2018-11-20T19:15:32.537Z,101709.77
2018-11-20T19:18:56.929Z,101690.86
2018-11-20T19:22:26.774Z,101691.77
2018-11-20T19:25:46.923Z,101689.16
2018-11-20T19:29:10.962Z,101690.86
2018-11-20T19:32:35.011Z,101688.70
2018-11-20T19:35:56.885Z,101693.85
2018-11-20T19:39:40.057Z,101695.97
2018-11-20T19:43:03.585Z,101688.29
2018-11-20T19:46:27.896Z,101689.16
2018-11-20T19:50:11.457Z,101700.23
2018-11-20T19:53:40.046Z,101698.52
2018-11-20T19:57:08.633Z,101692.61
2018-11-20T20:00:49.323Z,101678.34
2018-11-20T20:04:06.439Z,101703.26
2018-11-20T20:07:35.323Z,101704.14
2018-11-20T20:11:08.498Z,101703.64
2018-11-20T20:14:46.670Z,101716.53
2018-11-20T20:18:30.268Z,101709.66
2018-11-20T20:21:56.507Z,101709.69
2018-11-20T20:25:31.356Z,101712.72
2018-11-20T20:29:06.092Z,101717.86
2018-11-20T20:32:40.275Z,101714.80
2018-11-20T20:36:04.433Z,101722.47
2018-11-20T20:39:36.931Z,101715.59
2018-11-20T20:43:06.985Z,101720.78
2018-11-20T20:46:29.346Z,101715.69
2018-11-20T20:49:53.501Z,101724.28
2018-11-20T20:53:17.676Z,101716.48
2018-11-20T20:56:46.263Z,101719.91
2018-11-20T21:00:24.134Z,101714.37
2018-11-20T21:03:52.680Z,101717.38
2018-11-20T21:07:16.988Z,101715.72
2018-11-20T21:10:41.370Z,101722.53
2018-11-20T21:14:05.701Z,101723.81
2018-11-20T21:17:37.093Z,101731.55
2018-11-20T21:21:00.908Z,101732.00
2018-11-20T21:24:25.093Z,101733.25
2018-11-20T21:28:08.818Z,101736.67
2018-11-20T21:31:32.875Z,101734.98
2018-11-20T21:35:04.127Z,101733.64
2018-11-20T21:38:24.900Z,101739.69
2018-11-20T21:41:49.076Z,101741.82
2018-11-20T21:45:23.540Z,101746.48
2018-11-20T21:48:55.112Z,101748.66
2018-11-20T21:52:20.716Z,101741.36
2018-11-20T21:55:43.018Z,101759.82
2018-11-20T21:59:19.644Z,101754.69
2018-11-20T22:02:51.235Z,101757.20
2018-11-20T22:06:15.158Z,101762.77
2018-11-20T22:09:55.853Z,101763.25
2018-11-20T22:13:19.855Z,101766.30
2018-11-20T22:16:43.777Z,101769.73
2018-11-20T22:20:27.534Z,101775.27
2018-11-20T22:23:59.235Z,101775.69
2018-11-20T22:27:19.478Z,101789.44
2018-11-20T22:30:47.455Z,101782.97
2018-11-20T22:34:12.783Z,101795.87
2018-11-20T22:37:50.504Z,101802.76
2018-11-20T22:41:18.719Z,101806.63
2018-11-20T22:44:42.921Z,101801.05
2018-11-20T22:48:12.391Z,101809.22
2018-11-20T22:51:40.946Z,101808.73
2018-11-20T22:55:21.442Z,101811.77
2018-11-20T22:58:35.719Z,101820.30
2018-11-20T23:02:13.237Z,101820.73
2018-11-20T23:05:38.222Z,101828.05
2018-11-20T23:08:45.190Z,101823.31
2018-11-20T23:11:52.204Z,101830.15
2018-11-20T23:14:59.159Z,101834.44
2018-11-20T23:18:06.140Z,101832.29
2018-11-20T23:21:13.078Z,101833.17
2018-11-20T23:24:20.088Z,101834.03
2018-11-20T23:27:27.082Z,101833.14
2018-11-20T23:30:34.073Z,101836.56
2018-11-20T23:33:41.071Z,101844.73
2018-11-20T23:36:48.014Z,101840.03
2018-11-20T23:39:55.406Z,101843.03
2018-11-20T23:43:02.503Z,101839.16
2018-11-20T23:46:09.516Z,101841.75
2018-11-20T23:49:16.587Z,101843.02
2018-11-20T23:52:23.555Z,101837.00
2018-11-20T23:55:30.537Z,101837.89
2018-11-20T23:58:37.556Z,101836.22
